Jackson, Georgia
Current Conditions -  °F | °C
As of 9:55 PM on Saturday 25 Oct 2014 (Local Time) from K6A2 Reporting Station
Clear Clear  
Wind Chill: 63°   Ceiling: Unl
Heat Index: 63°   Visibility: 10mi
Dew Point: 48°   Wind: 7mph
Humidity: 59%   Direction: 310°NW
Pressure: 30.05"   Gusts: NA
Location:  33.29°N, 83.97°W
Report Text: K6A2 260155Z AUTO 31006KT 10SM CLR 17/09 A3005 RMK AO2
Loading
Personal Weather Stations






























Interactive Weather Map
Tropical Storm Tracking
New forecast layout! Learn more

10-Day Weather Forecast

Advertisements
Track Severe Weather on mobile